createdAt,value
2018-09-20T00:03:23.110Z,100403.79
2018-09-20T00:08:26.408Z,100392.08
2018-09-20T00:13:29.743Z,100392.86
2018-09-20T00:18:33.034Z,100398.81
2018-09-20T00:23:36.362Z,100397.70
2018-09-20T00:28:39.651Z,100392.52
2018-09-20T00:33:42.956Z,100396.81
2018-09-20T00:38:46.256Z,100401.38
2018-09-20T00:43:49.563Z,100399.98
2018-09-20T00:48:54.770Z,100398.62
2018-09-20T00:53:58.066Z,100400.75
2018-09-20T00:59:01.410Z,100406.38
2018-09-20T01:04:04.747Z,100412.06
2018-09-20T01:09:09.850Z,100410.13
2018-09-20T01:14:13.147Z,100407.38
2018-09-20T01:19:16.447Z,100409.81
2018-09-20T01:24:19.764Z,100408.45
2018-09-20T01:29:23.054Z,100415.21
2018-09-20T01:34:26.383Z,100419.27
2018-09-20T01:39:29.695Z,100415.74
2018-09-20T01:44:33.067Z,100420.84
2018-09-20T01:49:36.411Z,100420.80
2018-09-20T01:54:39.729Z,100426.97
2018-09-20T01:59:43.031Z,100425.84
2018-09-20T02:04:46.347Z,100431.47
2018-09-20T02:09:49.675Z,100429.02
2018-09-20T02:14:53.041Z,100429.50
2018-09-20T02:19:56.443Z,100430.27
2018-09-20T02:24:59.775Z,100429.13
2018-09-20T02:30:03.118Z,100426.14
2018-09-20T02:35:06.843Z,100428.52
2018-09-20T02:40:10.167Z,100430.56
2018-09-20T02:45:13.479Z,100434.61
2018-09-20T02:50:16.782Z,100429.94
2018-09-20T02:55:20.155Z,100433.12
2018-09-20T03:00:23.460Z,100430.67
2018-09-20T03:05:26.807Z,100424.39
2018-09-20T03:10:30.132Z,100432.16
2018-09-20T03:15:33.447Z,100433.72
2018-09-20T03:20:36.743Z,100437.11
2018-09-20T03:25:40.031Z,100445.89
2018-09-20T03:30:43.456Z,100446.61
2018-09-20T03:35:46.723Z,100451.60
2018-09-20T03:40:50.017Z,100454.13
2018-09-20T03:45:53.364Z,100455.27
2018-09-20T03:50:56.700Z,100462.84
2018-09-20T03:56:00.023Z,100465.30
2018-09-20T04:01:03.334Z,100465.27
2018-09-20T04:06:06.637Z,100460.57
2018-09-20T04:11:09.961Z,100460.50
2018-09-20T04:16:13.311Z,100460.47
2018-09-20T04:21:22.647Z,100460.47
2018-09-20T04:26:25.990Z,100457.69
2018-09-20T04:31:29.981Z,100456.48
2018-09-20T04:36:33.270Z,100454.70
2018-09-20T04:41:36.621Z,100463.63
2018-09-20T04:46:39.967Z,100461.59
2018-09-20T04:51:43.297Z,100463.80
2018-09-20T04:56:53.187Z,100461.45
2018-09-20T05:01:56.479Z,100465.20
2018-09-20T05:06:59.786Z,100466.27
2018-09-20T05:12:03.104Z,100470.48
2018-09-20T05:17:39.947Z,100474.91
2018-09-20T05:22:43.303Z,100482.43
2018-09-20T05:27:46.591Z,100496.41
2018-09-20T05:32:49.889Z,100493.78
2018-09-20T05:37:53.204Z,100491.39
2018-09-20T05:42:56.679Z,100494.66
2018-09-20T05:47:59.983Z,100489.75
2018-09-20T05:53:03.308Z,100495.33
2018-09-20T05:58:06.622Z,100491.45
2018-09-20T06:03:09.933Z,100497.03
2018-09-20T06:08:13.252Z,100496.17
2018-09-20T06:13:16.612Z,100497.53
2018-09-20T06:18:19.921Z,100508.81
2018-09-20T06:23:23.218Z,100505.77
2018-09-20T06:28:26.509Z,100505.67
2018-09-20T06:33:29.806Z,100503.41
2018-09-20T06:38:33.114Z,100504.92
2018-09-20T06:43:36.425Z,100495.93
2018-09-20T06:48:39.723Z,100505.55
2018-09-20T06:53:43.038Z,100502.77
2018-09-20T06:58:46.407Z,100503.94
2018-09-20T07:03:49.739Z,100500.29
2018-09-20T07:08:53.027Z,100504.94
2018-09-20T07:13:56.349Z,100504.52
2018-09-20T07:18:59.650Z,100507.92
2018-09-20T07:24:03.188Z,100506.22
2018-09-20T07:29:06.501Z,100509.40
2018-09-20T07:34:09.795Z,100508.86
2018-09-20T07:39:13.073Z,100504.80
2018-09-20T07:44:16.390Z,100498.97
2018-09-20T07:49:19.703Z,100498.52
2018-09-20T07:54:23.002Z,100500.15
2018-09-20T07:59:26.306Z,100503.73
2018-09-20T08:04:29.605Z,100495.92
2018-09-20T08:09:32.891Z,100501.37
2018-09-20T08:14:36.187Z,100507.14
2018-09-20T08:19:39.483Z,100505.86
2018-09-20T08:24:42.863Z,100509.47
2018-09-20T08:29:46.186Z,100496.30
2018-09-20T08:34:49.508Z,100491.73
2018-09-20T08:39:52.828Z,100484.17
2018-09-20T08:44:56.132Z,100486.64
2018-09-20T08:49:59.443Z,100483.95
2018-09-20T08:55:02.768Z,100482.62
2018-09-20T09:00:06.862Z,100482.11
2018-09-20T09:05:10.155Z,100474.23
2018-09-20T09:10:13.468Z,100468.51
2018-09-20T09:15:16.790Z,100469.30
2018-09-20T09:20:20.100Z,100460.59
2018-09-20T09:25:23.408Z,100448.84
2018-09-20T09:30:26.722Z,100444.70
2018-09-20T09:35:30.045Z,100439.48
2018-09-20T09:40:33.336Z,100427.20
2018-09-20T09:45:36.622Z,100430.13
2018-09-20T09:50:39.931Z,100433.40
2018-09-20T09:55:43.262Z,100428.42
2018-09-20T10:00:46.584Z,100421.45
2018-09-20T10:05:49.910Z,100405.45
2018-09-20T10:10:53.232Z,100398.50
2018-09-20T10:15:56.561Z,100396.63
2018-09-20T10:20:59.876Z,100388.11
2018-09-20T10:26:03.164Z,100383.74
2018-09-20T10:31:06.459Z,100384.98
2018-09-20T10:36:09.746Z,100377.44
2018-09-20T10:41:13.055Z,100370.27
2018-09-20T10:46:16.406Z,100363.77
2018-09-20T10:51:19.822Z,100359.02
2018-09-20T10:56:23.136Z,100349.05
2018-09-20T11:01:26.458Z,100331.84
2018-09-20T11:06:29.803Z,100319.84
2018-09-20T11:11:33.139Z,100321.00
2018-09-20T11:16:37.223Z,100317.31
2018-09-20T11:21:40.578Z,100314.64
2018-09-20T11:26:43.912Z,100311.20
2018-09-20T11:31:47.254Z,100298.43
2018-09-20T11:36:50.547Z,100300.45
2018-09-20T11:41:53.894Z,100296.82
2018-09-20T11:46:57.231Z,100297.03
2018-09-20T11:52:00.536Z,100292.31
2018-09-20T11:57:03.834Z,100283.63
2018-09-20T12:02:07.172Z,100278.98
2018-09-20T12:07:10.494Z,100270.27
2018-09-20T12:12:13.792Z,100264.50
2018-09-20T12:17:17.107Z,100257.08
2018-09-20T12:22:20.523Z,100248.22
2018-09-20T12:27:23.827Z,100233.59
2018-09-20T12:32:27.182Z,100223.30
2018-09-20T12:37:35.535Z,100218.03
2018-09-20T12:42:38.850Z,100218.47
2018-09-20T12:47:42.171Z,100204.08
2018-09-20T12:52:45.465Z,100197.84
2018-09-20T12:57:48.767Z,100198.48
2018-09-20T13:02:52.055Z,100190.01
2018-09-20T13:07:55.352Z,100182.09
2018-09-20T13:12:58.843Z,100175.06
2018-09-20T13:18:02.177Z,100162.91
2018-09-20T13:23:05.507Z,100163.22
2018-09-20T13:28:09.223Z,100159.95
2018-09-20T13:33:12.594Z,100152.13
2018-09-20T13:38:15.921Z,100142.21
2018-09-20T13:43:19.272Z,100138.98
2018-09-20T13:48:22.715Z,100136.99
2018-09-20T13:53:26.026Z,100133.91
2018-09-20T13:58:29.319Z,100133.66
2018-09-20T14:03:32.781Z,100128.20
2018-09-20T14:08:36.292Z,100124.61
2018-09-20T14:13:39.622Z,100123.84
2018-09-20T14:18:42.939Z,100114.48
2018-09-20T14:23:46.373Z,100108.30
2018-09-20T14:28:49.635Z,100110.91
2018-09-20T14:33:52.983Z,100110.58
2018-09-20T14:38:56.328Z,100108.13
2018-09-20T14:43:59.737Z,100100.08
2018-09-20T14:49:03.183Z,100112.88
2018-09-20T14:54:06.612Z,100116.33
2018-09-20T14:59:10.028Z,100108.48
2018-09-20T15:04:13.350Z,100102.92
2018-09-20T15:09:16.750Z,100101.07
2018-09-20T15:14:20.104Z,100104.03
2018-09-20T15:19:23.423Z,100092.61
2018-09-20T15:24:26.835Z,100096.05
2018-09-20T15:29:30.300Z,100093.97
2018-09-20T15:34:33.644Z,100093.50
2018-09-20T15:39:36.971Z,100083.49
2018-09-20T15:44:40.334Z,100077.67
2018-09-20T15:49:43.661Z,100084.75
2018-09-20T15:54:47.024Z,100085.97
2018-09-20T15:59:50.392Z,100084.93
2018-09-20T16:04:53.721Z,100083.14
2018-09-20T16:09:57.091Z,100076.67
2018-09-20T16:15:00.448Z,100072.23
2018-09-20T16:20:04.009Z,100072.28
2018-09-20T16:25:07.703Z,100068.27
2018-09-20T16:30:28.624Z,100065.86
2018-09-20T16:35:44.262Z,100065.78
2018-09-20T16:40:49.038Z,100055.77
2018-09-20T16:45:52.363Z,100055.95
2018-09-20T16:50:55.672Z,100053.75
2018-09-20T16:55:58.994Z,100041.60
2018-09-20T17:01:02.439Z,100040.00
2018-09-20T17:06:05.886Z,100042.84
2018-09-20T17:11:09.266Z,100051.67
2018-09-20T17:16:12.667Z,100051.35
2018-09-20T17:21:16.039Z,100056.19
2018-09-20T17:26:19.379Z,100059.72
2018-09-20T17:31:22.779Z,100059.66
2018-09-20T17:36:26.411Z,100057.94
2018-09-20T17:41:31.995Z,100058.39
2018-09-20T17:46:35.479Z,100060.72
2018-09-20T17:51:39.101Z,100056.80
2018-09-20T17:56:42.835Z,100053.28
2018-09-20T18:01:46.127Z,100054.46
2018-09-20T18:06:49.527Z,100052.44
2018-09-20T18:11:52.848Z,100052.39
2018-09-20T18:16:56.227Z,100049.05
2018-09-20T18:21:59.548Z,100057.95
2018-09-20T18:27:02.867Z,100054.59
2018-09-20T18:32:05.799Z,100050.98
2018-09-20T18:37:09.122Z,100059.78
2018-09-20T18:42:12.451Z,100059.83
2018-09-20T18:47:16.105Z,100063.91
2018-09-20T18:52:19.427Z,100063.10
2018-09-20T18:57:22.756Z,100059.41
2018-09-20T19:02:26.057Z,100053.26
2018-09-20T19:07:29.458Z,100056.81
2018-09-20T19:12:32.767Z,100050.63
2018-09-20T19:17:36.118Z,100051.73
2018-09-20T19:22:39.439Z,100044.39
2018-09-20T19:27:42.990Z,100040.70
2018-09-20T19:32:46.339Z,100036.00
2018-09-20T19:37:49.664Z,100030.16
2018-09-20T19:42:52.988Z,100033.91
2018-09-20T19:47:56.300Z,100026.83
2018-09-20T19:52:59.619Z,100030.34
2018-09-20T19:58:02.909Z,100032.64
2018-09-20T20:03:06.263Z,100030.22
2018-09-20T20:08:09.626Z,100021.20
2018-09-20T20:13:13.025Z,100024.41
2018-09-20T20:23:51.091Z,100010.09
2018-09-20T20:28:54.542Z,100004.73
2018-09-20T20:33:57.883Z,100007.98
2018-09-20T20:39:01.326Z,100006.63
2018-09-20T20:44:04.731Z,100008.22
2018-09-20T20:49:08.047Z,100004.11
2018-09-20T20:54:11.486Z,100002.75
2018-09-20T20:59:14.826Z,99995.74
2018-09-20T21:04:18.158Z,99998.75
2018-09-20T21:09:21.631Z,99999.33
2018-09-20T21:14:24.995Z,100003.14
2018-09-20T21:19:28.362Z,99993.64
2018-09-20T21:24:31.799Z,99992.06
2018-09-20T21:29:35.205Z,99985.88
2018-09-20T21:34:38.704Z,99982.08
2018-09-20T21:39:42.071Z,99981.55
2018-09-20T21:44:45.400Z,99985.36
2018-09-20T21:49:48.723Z,99976.19
2018-09-20T21:54:52.023Z,99970.76
2018-09-20T21:59:55.363Z,99965.91
2018-09-20T22:04:58.721Z,99961.55
2018-09-20T22:10:02.097Z,99957.23
2018-09-20T22:15:10.700Z,99953.47
2018-09-20T22:20:14.215Z,99946.44
2018-09-20T22:25:17.600Z,99939.94
2018-09-20T22:30:21.278Z,99938.59
2018-09-20T22:35:25.401Z,99928.84
2018-09-20T22:40:28.744Z,99934.55
2018-09-20T22:45:32.249Z,99922.11
2018-09-20T22:50:35.590Z,99917.78
2018-09-20T22:55:38.916Z,99916.19
2018-09-20T23:00:42.254Z,99912.13
2018-09-20T23:05:45.581Z,99909.17
2018-09-20T23:10:48.903Z,99903.53
2018-09-20T23:15:52.218Z,99908.69
2018-09-20T23:20:55.593Z,99903.86
2018-09-20T23:25:58.981Z,99898.17
2018-09-20T23:31:02.295Z,99891.97
2018-09-20T23:36:05.594Z,99891.42
2018-09-20T23:41:08.985Z,99882.78
2018-09-20T23:46:12.315Z,99875.22
2018-09-20T23:51:15.735Z,99873.86
2018-09-20T23:56:19.039Z,99869.81
